Time;durP1;ratioP1;P1;durP2;ratioP2;P2;SDS_P1;SDS_P2;PMS_P1;PMS_P2;Temp;Humidity;BMP_temperature;BMP_pressure;BME280_temperature;BME280_humidity;BME280_pressure;Samples;Min_cycle;Max_cycle;Signal;HPM_P1;HPM_P2
2022/05/22 00:01:50;;;;;;;0.00;0.00;;;10.70;99.90;;;;;;5054580;28;20056;-77
2022/05/22 00:04:16;;;;;;;0.00;0.00;;;10.70;99.90;;;;;;5055057;28;20041;-77
2022/05/22 00:06:41;;;;;;;0.00;0.00;;;10.70;99.90;;;;;;5054526;28;20049;-77
2022/05/22 00:09:07;;;;;;;0.00;0.00;;;10.70;99.90;;;;;;5054499;28;20045;-77
2022/05/22 00:11:33;;;;;;;0.00;0.00;;;10.60;99.90;;;;;;5054429;28;20044;-77
2022/05/22 00:13:59;;;;;;;0.00;0.00;;;10.60;99.90;;;;;;5037306;28;20545;-77
2022/05/22 00:16:36;;;;;;;0.00;0.00;;;10.50;99.90;;;;;;5053864;28;20048;-77
2022/05/22 00:19:10;;;;;;;0.00;0.00;;;10.50;99.90;;;;;;5054482;28;20059;-77
2022/05/22 00:21:36;;;;;;;0.00;0.00;;;10.60;99.90;;;;;;5054984;28;20186;-77
2022/05/22 00:24:04;;;;;;;0.30;0.30;;;10.60;99.90;;;;;;5037565;28;20052;-77
2022/05/22 00:26:29;;;;;;;0.00;0.00;;;10.60;99.90;;;;;;5053804;28;20049;-77
2022/05/22 00:28:55;;;;;;;0.00;0.00;;;10.60;99.90;;;;;;5037630;28;20059;-77
2022/05/22 00:31:21;;;;;;;0.00;0.00;;;10.60;99.90;;;;;;5037508;28;20041;-77
2022/05/22 00:33:47;;;;;;;0.00;0.00;;;10.50;99.90;;;;;;5053928;28;20041;-77
2022/05/22 00:36:12;;;;;;;0.00;0.00;;;10.50;99.90;;;;;;5037418;28;20485;-77
2022/05/22 00:38:38;;;;;;;0.00;0.00;;;10.40;99.90;;;;;;5052986;28;20057;-77
2022/05/22 00:41:06;;;;;;;0.00;0.00;;;10.40;99.90;;;;;;5053540;28;20055;-77
2022/05/22 00:43:46;;;;;;;0.00;0.00;;;10.30;99.90;;;;;;5053585;28;20045;-77
2022/05/22 00:46:13;;;;;;;0.00;0.00;;;10.30;99.90;;;;;;5037031;28;20056;-77
2022/05/22 00:48:42;;;;;;;0.00;0.00;;;10.30;99.90;;;;;;5037216;28;20098;-77
2022/05/22 00:51:23;;;;;;;0.00;0.00;;;10.40;99.90;;;;;;5053669;28;20044;-77
2022/05/22 00:54:16;;;;;;;0.00;0.00;;;10.30;99.90;;;;;;5053017;28;20045;-77
2022/05/22 00:56:51;;;;;;;0.00;0.00;;;10.30;99.90;;;;;;5052844;28;20424;-77
2022/05/22 00:59:24;;;;;;;0.00;0.00;;;10.30;99.90;;;;;;5053762;28;20409;-77
2022/05/22 01:01:50;;;;;;;0.00;0.00;;;10.20;99.90;;;;;;5053480;28;20053;-77
2022/05/22 01:04:23;;;;;;;0.00;0.00;;;10.20;99.90;;;;;;5054091;28;20397;-77
2022/05/22 01:06:51;;;;;;;0.00;0.00;;;10.10;99.90;;;;;;5053596;28;20037;-77
2022/05/22 01:09:17;;;;;;;0.10;0.10;;;10.10;99.90;;;;;;5036599;28;20068;-77
2022/05/22 01:11:42;;;;;;;0.00;0.00;;;10.10;99.90;;;;;;5036699;28;20082;-77
2022/05/22 01:14:12;;;;;;;0.00;0.00;;;10.10;99.90;;;;;;5053183;28;20091;-77
2022/05/22 01:16:38;;;;;;;0.00;0.00;;;10.00;99.90;;;;;;5052748;28;20048;-77
2022/05/22 01:19:13;;;;;;;0.00;0.00;;;10.10;99.90;;;;;;5036461;28;20040;-77
2022/05/22 01:21:40;;;;;;;0.00;0.00;;;10.00;99.90;;;;;;5034676;28;20049;-77
2022/05/22 01:24:07;;;;;;;0.00;0.00;;;10.10;99.90;;;;;;5053049;28;20515;-77
2022/05/22 01:26:34;;;;;;;0.00;0.00;;;10.00;99.90;;;;;;5053063;28;20130;-77
2022/05/22 01:28:59;;;;;;;0.00;0.00;;;10.00;99.90;;;;;;5052969;28;20099;-77
2022/05/22 01:31:25;;;;;;;0.80;0.20;;;10.00;99.90;;;;;;5052786;28;20041;-77
2022/05/22 01:33:50;;;;;;;0.00;0.00;;;9.90;99.90;;;;;;5036078;28;20053;-77
2022/05/22 01:36:17;;;;;;;0.03;0.03;;;9.90;99.90;;;;;;5036474;28;20124;-77
2022/05/22 01:38:43;;;;;;;0.00;0.00;;;9.80;99.90;;;;;;5053124;28;20041;-77
2022/05/22 01:41:09;;;;;;;0.00;0.00;;;9.90;99.90;;;;;;5036281;28;20086;-77
2022/05/22 01:43:35;;;;;;;0.55;0.00;;;10.00;99.90;;;;;;5052452;28;20040;-77
2022/05/22 01:46:02;;;;;;;0.00;0.00;;;9.90;99.90;;;;;;5036130;28;20049;-77
2022/05/22 01:48:28;;;;;;;0.00;0.00;;;9.90;99.90;;;;;;5052968;28;20053;-77
2022/05/22 01:50:54;;;;;;;0.00;0.00;;;9.80;99.90;;;;;;5052792;28;20087;-77
2022/05/22 01:53:21;;;;;;;0.00;0.00;;;9.70;99.90;;;;;;5035717;28;20060;-77
2022/05/22 01:55:48;;;;;;;0.00;0.00;;;9.80;99.90;;;;;;5035798;28;20195;-77
2022/05/22 01:58:14;;;;;;;0.00;0.00;;;9.80;99.90;;;;;;5036320;28;20056;-77
2022/05/22 02:00:40;;;;;;;0.00;0.00;;;9.80;99.90;;;;;;5035927;28;20053;-77
2022/05/22 02:03:07;;;;;;;0.00;0.00;;;9.70;99.90;;;;;;5036066;28;20053;-77
2022/05/22 02:05:34;;;;;;;0.00;0.00;;;9.80;99.90;;;;;;5036138;28;20052;-77
2022/05/22 02:10:44;;;;;;;0.00;0.00;;;9.70;99.90;;;;;;5053237;28;20049;-77
2022/05/22 02:13:10;;;;;;;0.00;0.00;;;9.70;99.90;;;;;;5052509;28;20290;-77
2022/05/22 02:15:36;;;;;;;0.00;0.00;;;9.60;99.90;;;;;;5035305;28;20076;-77
2022/05/22 02:18:02;;;;;;;0.00;0.00;;;9.60;99.90;;;;;;5035697;28;20053;-77
2022/05/22 02:20:28;;;;;;;0.00;0.00;;;9.50;99.90;;;;;;5035914;28;20052;-77
2022/05/22 02:22:56;;;;;;;0.00;0.00;;;9.50;99.90;;;;;;5052407;28;20052;-77
2022/05/22 02:25:34;;;;;;;0.00;0.00;;;9.50;99.90;;;;;;5035757;28;20040;-77
2022/05/22 02:28:02;;;;;;;0.00;0.00;;;9.40;99.90;;;;;;5035691;28;20131;-77
2022/05/22 02:30:31;;;;;;;0.00;0.00;;;9.50;99.90;;;;;;5052514;28;20083;-77
2022/05/22 02:32:57;;;;;;;0.03;0.03;;;9.50;99.90;;;;;;5052014;28;20090;-77
2022/05/22 02:35:23;;;;;;;0.00;0.00;;;9.60;99.90;;;;;;5052026;28;20509;-77
2022/05/22 02:37:52;;;;;;;0.00;0.00;;;9.60;99.90;;;;;;5052275;28;20088;-77
2022/05/22 02:40:21;;;;;;;0.10;0.05;;;9.60;99.90;;;;;;5052425;28;20382;-77
2022/05/22 02:42:48;;;;;;;0.00;0.00;;;9.60;99.90;;;;;;5035753;28;20060;-77
2022/05/22 02:45:20;;;;;;;0.00;0.00;;;9.70;99.90;;;;;;5035926;28;20111;-77
2022/05/22 02:47:47;;;;;;;0.00;0.00;;;9.50;99.90;;;;;;5052129;28;20045;-77
2022/05/22 02:50:15;;;;;;;0.22;0.05;;;9.50;99.90;;;;;;5052121;28;20052;-77
2022/05/22 02:52:40;;;;;;;0.00;0.00;;;9.40;99.90;;;;;;5051545;28;20057;-77
2022/05/22 02:55:08;;;;;;;0.20;0.10;;;9.40;99.90;;;;;;5052028;28;20554;-77
2022/05/22 02:57:35;;;;;;;0.20;0.20;;;9.40;99.90;;;;;;5054996;28;20090;-77
2022/05/22 03:00:01;;;;;;;0.00;0.00;;;9.30;99.90;;;;;;5055757;28;20071;-77
2022/05/22 03:02:26;;;;;;;0.32;0.00;;;9.40;99.90;;;;;;5038945;28;20041;-77
2022/05/22 03:04:52;;;;;;;0.00;0.00;;;9.40;99.90;;;;;;5039230;28;20065;-77
2022/05/22 03:07:19;;;;;;;0.00;0.00;;;9.30;99.90;;;;;;5055741;28;20049;-77
2022/05/22 03:09:46;;;;;;;0.00;0.00;;;9.20;99.90;;;;;;5039145;28;20476;-77
2022/05/22 03:12:16;;;;;;;0.45;0.28;;;9.30;99.90;;;;;;5055481;28;20037;-77
2022/05/22 03:14:47;;;;;;;0.00;0.00;;;9.20;99.90;;;;;;5055484;28;20049;-77
2022/05/22 03:17:13;;;;;;;0.00;0.00;;;9.20;99.90;;;;;;5038917;28;20053;-77
2022/05/22 03:19:39;;;;;;;0.00;0.00;;;9.20;99.90;;;;;;5055427;28;20052;-77
2022/05/22 03:22:06;;;;;;;0.00;0.00;;;9.20;99.90;;;;;;5055415;28;20055;-77
2022/05/22 03:24:32;;;;;;;0.00;0.00;;;9.20;99.90;;;;;;5055351;28;20049;-77
2022/05/22 03:27:01;;;;;;;0.03;0.03;;;9.20;99.90;;;;;;5055336;28;20071;-77
2022/05/22 03:29:26;;;;;;;0.00;0.00;;;9.20;99.90;;;;;;5055033;28;20045;-77
2022/05/22 03:31:52;;;;;;;0.00;0.00;;;9.10;99.90;;;;;;5054930;28;20045;-77
2022/05/22 03:34:18;;;;;;;1.15;0.35;;;9.10;99.90;;;;;;5055186;28;20091;-77
2022/05/22 03:36:43;;;;;;;0.10;0.00;;;9.10;99.90;;;;;;5038867;28;20109;-77
2022/05/22 03:39:09;;;;;;;0.00;0.00;;;9.10;99.90;;;;;;5055062;28;20056;-77
2022/05/22 03:41:36;;;;;;;0.52;0.25;;;9.10;99.90;;;;;;5038453;28;20504;-77
2022/05/22 03:44:02;;;;;;;0.05;0.00;;;9.20;99.90;;;;;;5054911;28;20053;-77
2022/05/22 03:46:27;;;;;;;0.00;0.00;;;9.10;99.90;;;;;;5054861;28;20041;-77
2022/05/22 03:48:53;;;;;;;0.00;0.00;;;9.00;99.90;;;;;;5054859;28;20044;-77
2022/05/22 03:51:19;;;;;;;0.00;0.00;;;9.00;99.90;;;;;;5054734;28;20051;-77
2022/05/22 03:53:45;;;;;;;0.25;0.25;;;9.10;99.90;;;;;;5037732;28;20052;-77
2022/05/22 03:56:13;;;;;;;0.00;0.00;;;9.10;99.90;;;;;;5054671;28;20045;-77
2022/05/22 03:58:40;;;;;;;0.00;0.00;;;9.00;99.90;;;;;;5054740;28;20048;-77
2022/05/22 04:01:07;;;;;;;0.28;0.20;;;9.00;99.90;;;;;;5038226;28;20462;-77
2022/05/22 04:03:34;;;;;;;0.00;0.00;;;9.10;99.90;;;;;;5054689;28;20059;-77
2022/05/22 04:06:01;;;;;;;0.25;0.08;;;9.20;99.90;;;;;;5038037;28;20143;-77
2022/05/22 04:08:28;;;;;;;0.00;0.00;;;9.20;99.90;;;;;;5054140;28;20048;-77
2022/05/22 04:10:54;;;;;;;0.00;0.00;;;9.20;99.90;;;;;;5054497;28;20405;-77
2022/05/22 04:13:20;;;;;;;0.00;0.00;;;9.20;99.90;;;;;;5053742;28;20053;-77
2022/05/22 04:15:46;;;;;;;0.00;0.00;;;9.20;99.90;;;;;;5054170;28;20437;-77
2022/05/22 04:18:12;;;;;;;0.00;0.00;;;9.20;99.90;;;;;;5054345;28;20469;-77
2022/05/22 04:20:38;;;;;;;0.10;0.00;;;9.30;99.90;;;;;;5053703;28;20140;-77
2022/05/22 04:25:57;;;;;;;0.00;0.00;;;9.30;99.90;;;;;;5054252;28;20515;-77
2022/05/22 04:28:24;;;;;;;0.00;0.00;;;9.30;99.90;;;;;;5037548;28;20493;-77
2022/05/22 04:30:50;;;;;;;0.00;0.00;;;9.30;99.90;;;;;;5037232;28;20055;-77
2022/05/22 04:33:16;;;;;;;0.08;0.08;;;9.40;99.90;;;;;;5053615;28;20081;-77
2022/05/22 04:35:43;;;;;;;0.10;0.00;;;9.40;99.90;;;;;;5053192;28;20057;-77
2022/05/22 04:38:10;;;;;;;0.10;0.00;;;9.50;99.90;;;;;;5037298;28;20052;-77
2022/05/22 04:40:37;;;;;;;0.00;0.00;;;9.50;99.90;;;;;;5037221;28;20134;-77
2022/05/22 04:43:04;;;;;;;0.00;0.00;;;9.50;99.90;;;;;;5054658;28;20052;-77
2022/05/22 04:45:31;;;;;;;0.00;0.00;;;9.50;99.90;;;;;;5053901;28;20081;-77
2022/05/22 04:47:57;;;;;;;0.00;0.00;;;9.50;99.90;;;;;;5053793;28;20053;-77
2022/05/22 04:50:23;;;;;;;0.00;0.00;;;9.50;99.90;;;;;;5053758;28;20040;-77
2022/05/22 04:52:48;;;;;;;0.00;0.00;;;9.50;99.90;;;;;;5036486;28;20079;-77
2022/05/22 04:55:14;;;;;;;0.00;0.00;;;9.60;99.90;;;;;;5053507;28;20380;-77
2022/05/22 04:57:40;;;;;;;0.00;0.00;;;9.60;99.90;;;;;;5037032;28;20519;-77
2022/05/22 05:00:09;;;;;;;0.00;0.00;;;9.70;99.90;;;;;;5053503;28;20053;-77
2022/05/22 05:02:35;;;;;;;0.00;0.00;;;9.80;99.90;;;;;;5036955;28;20045;-77
2022/05/22 05:05:02;;;;;;;0.00;0.00;;;9.90;99.90;;;;;;5037030;28;20064;-77
2022/05/22 05:07:28;;;;;;;0.00;0.00;;;10.00;99.90;;;;;;5036828;28;20057;-77
2022/05/22 05:09:53;;;;;;;0.00;0.00;;;10.00;99.90;;;;;;5053117;28;20115;-77
2022/05/22 05:12:19;;;;;;;0.00;0.00;;;10.20;99.90;;;;;;5053047;28;20076;-77
2022/05/22 05:14:46;;;;;;;0.00;0.00;;;10.20;99.90;;;;;;5052889;28;20041;-77
2022/05/22 05:17:14;;;;;;;0.00;0.00;;;10.30;99.90;;;;;;5052746;28;20052;-78
2022/05/22 05:19:40;;;;;;;0.00;0.00;;;10.40;99.90;;;;;;5036112;28;20056;-77
2022/05/22 05:22:06;;;;;;;0.17;0.10;;;10.50;99.90;;;;;;5053161;28;20041;-77
2022/05/22 05:24:33;;;;;;;2.72;0.43;;;10.60;99.90;;;;;;5052638;28;20140;-78
2022/05/22 05:26:59;;;;;;;0.00;0.00;;;10.70;99.90;;;;;;5053126;28;20051;-78
2022/05/22 05:29:25;;;;;;;0.10;0.00;;;10.80;99.90;;;;;;5053050;28;20048;-78
2022/05/22 05:31:51;;;;;;;0.00;0.00;;;11.10;99.90;;;;;;5052835;28;20049;-77
2022/05/22 05:34:17;;;;;;;0.00;0.00;;;11.50;99.90;;;;;;5066502;28;20124;-78
2022/05/22 05:36:43;;;;;;;0.00;0.00;;;12.00;99.90;;;;;;5071127;28;20045;-78
2022/05/22 05:39:09;;;;;;;0.00;0.00;;;12.30;99.90;;;;;;5052237;28;20056;-78
2022/05/22 05:41:36;;;;;;;0.00;0.00;;;12.40;99.90;;;;;;5070552;28;20377;-78
2022/05/22 05:44:05;;;;;;;0.00;0.00;;;12.50;99.90;;;;;;5053649;28;20060;-78
2022/05/22 05:46:35;;;;;;;0.28;0.22;;;12.50;99.90;;;;;;5070467;28;20135;-78
2022/05/22 05:49:02;;;;;;;0.00;0.00;;;12.50;99.90;;;;;;5053851;28;20064;-78
2022/05/22 05:51:28;;;;;;;0.00;0.00;;;12.40;99.90;;;;;;5053604;28;20052;-78
2022/05/22 05:53:54;;;;;;;0.00;0.00;;;12.30;99.90;;;;;;5053296;28;20377;-78
2022/05/22 05:56:20;;;;;;;0.00;0.00;;;12.30;99.90;;;;;;5070737;28;20044;-78
2022/05/22 05:58:46;;;;;;;0.22;0.17;;;12.20;99.90;;;;;;5069995;28;20059;-78
2022/05/22 06:01:14;;;;;;;0.00;0.00;;;12.30;99.90;;;;;;5070045;28;20052;-78
2022/05/22 06:03:39;;;;;;;0.00;0.00;;;12.30;99.90;;;;;;5052882;28;20496;-78
2022/05/22 06:06:10;;;;;;;0.00;0.00;;;12.30;99.90;;;;;;5070027;28;20121;-78
2022/05/22 06:08:36;;;;;;;0.70;0.38;;;12.40;99.90;;;;;;5070515;28;20139;-78
2022/05/22 06:11:02;;;;;;;0.00;0.00;;;12.40;99.90;;;;;;5070023;28;20049;-78
2022/05/22 06:13:28;;;;;;;0.00;0.00;;;12.50;99.90;;;;;;5069348;28;20052;-78
2022/05/22 06:15:53;;;;;;;0.10;0.00;;;12.50;99.90;;;;;;5069905;28;20091;-78
2022/05/22 06:18:22;;;;;;;0.00;0.00;;;12.50;99.90;;;;;;5069986;28;20062;-78
2022/05/22 06:20:48;;;;;;;0.85;0.00;;;12.70;99.90;;;;;;5070621;28;20139;-78
2022/05/22 06:23:14;;;;;;;0.00;0.00;;;12.60;99.90;;;;;;5069989;28;20139;-78
2022/05/22 06:25:44;;;;;;;0.30;0.30;;;12.70;99.90;;;;;;5053739;28;20053;-78
2022/05/22 06:28:11;;;;;;;0.88;0.45;;;12.70;99.90;;;;;;5070237;28;20056;-78
2022/05/22 06:30:37;;;;;;;0.00;0.00;;;12.80;99.90;;;;;;5071164;28;20099;-78
2022/05/22 06:33:08;;;;;;;0.00;0.00;;;12.80;99.90;;;;;;5073206;28;20480;-78
2022/05/22 06:35:34;;;;;;;0.00;0.00;;;13.00;99.90;;;;;;5074127;28;20052;-78
2022/05/22 06:38:00;;;;;;;0.10;0.10;;;13.00;99.90;;;;;;5052061;28;20049;-78
2022/05/22 06:40:26;;;;;;;0.10;0.08;;;13.10;99.90;;;;;;5037223;28;20483;-78
2022/05/22 06:42:52;;;;;;;0.00;0.00;;;13.20;99.90;;;;;;5037255;28;20092;-78
2022/05/22 06:45:24;;;;;;;0.08;0.05;;;13.30;99.90;;;;;;5038161;28;20487;-78
2022/05/22 06:47:51;;;;;;;0.00;0.00;;;13.40;99.90;;;;;;5037238;28;20119;-78
2022/05/22 06:50:20;;;;;;;0.00;0.00;;;13.50;99.90;;;;;;5054252;28;20471;-78
2022/05/22 06:52:46;;;;;;;0.00;0.00;;;13.60;99.90;;;;;;5058634;28;20044;-78
2022/05/22 06:55:13;;;;;;;0.10;0.10;;;13.60;99.90;;;;;;5074328;28;20452;-78
2022/05/22 06:57:39;;;;;;;1.17;0.47;;;13.80;99.90;;;;;;5057907;28;20135;-78
2022/05/22 07:00:08;;;;;;;0.40;0.22;;;13.80;99.90;;;;;;5059226;28;20048;-77
2022/05/22 07:02:36;;;;;;;1.20;0.65;;;13.90;99.90;;;;;;5059767;28;20048;-78
2022/05/22 07:05:03;;;;;;;0.00;0.00;;;14.00;99.90;;;;;;5075747;28;20473;-78
2022/05/22 07:07:29;;;;;;;0.00;0.00;;;14.10;99.90;;;;;;5075849;28;20049;-78
2022/05/22 07:09:55;;;;;;;0.10;0.10;;;14.10;99.90;;;;;;5075640;28;20041;-78
2022/05/22 07:12:21;;;;;;;0.00;0.00;;;14.30;99.90;;;;;;5058452;28;20056;-78
2022/05/22 07:14:51;;;;;;;2.50;0.65;;;14.40;99.90;;;;;;5058834;28;20101;-78
2022/05/22 07:17:21;;;;;;;0.00;0.00;;;14.40;99.90;;;;;;5059457;28;20044;-78
2022/05/22 07:19:47;;;;;;;0.00;0.00;;;14.60;99.90;;;;;;5059039;28;20044;-78
2022/05/22 07:22:13;;;;;;;0.00;0.00;;;14.80;99.90;;;;;;5074956;28;20048;-78
2022/05/22 07:24:39;;;;;;;0.00;0.00;;;14.90;99.90;;;;;;5075629;28;20094;-78
2022/05/22 07:27:06;;;;;;;0.00;0.00;;;15.10;99.90;;;;;;5058820;28;20147;-78
2022/05/22 07:29:32;;;;;;;0.00;0.00;;;15.30;99.90;;;;;;5058330;28;20086;-78
2022/05/22 07:31:58;;;;;;;0.00;0.00;;;15.40;99.90;;;;;;5058515;28;20044;-78
2022/05/22 07:34:27;;;;;;;0.00;0.00;;;15.70;99.90;;;;;;5075279;28;20067;-78
2022/05/22 07:37:06;;;;;;;1.67;0.47;;;15.80;99.90;;;;;;5058600;28;20048;-78
2022/05/22 07:39:32;;;;;;;0.00;0.00;;;15.90;99.90;;;;;;5075164;28;20476;-78
2022/05/22 07:41:58;;;;;;;0.00;0.00;;;16.10;99.90;;;;;;5057707;28;20060;-78
2022/05/22 07:44:24;;;;;;;0.00;0.00;;;16.10;99.90;;;;;;5075034;28;20045;-78
2022/05/22 07:46:50;;;;;;;0.20;0.20;;;16.10;99.90;;;;;;5075036;28;20499;-78
2022/05/22 07:52:09;;;;;;;0.00;0.00;;;16.20;99.90;;;;;;5074600;28;20052;-78
2022/05/22 07:54:39;;;;;;;0.00;0.00;;;16.30;99.90;;;;;;5058002;28;20132;-78
2022/05/22 07:57:06;;;;;;;0.00;0.00;;;16.40;99.90;;;;;;5058239;28;20060;-78
2022/05/22 07:59:36;;;;;;;0.00;0.00;;;16.50;99.90;;;;;;5074907;28;20091;-78
2022/05/22 08:02:03;;;;;;;0.00;0.00;;;16.60;99.90;;;;;;5057812;28;20114;-78
2022/05/22 08:04:29;;;;;;;0.00;0.00;;;16.50;99.90;;;;;;5074555;28;20381;-78
2022/05/22 08:06:55;;;;;;;3.30;0.45;;;16.60;99.90;;;;;;5075059;28;20092;-77
2022/05/22 08:09:21;;;;;;;0.38;0.38;;;16.70;99.90;;;;;;5074601;28;20048;-78
2022/05/22 08:11:47;;;;;;;0.00;0.00;;;16.80;99.90;;;;;;5074450;28;20119;-78
2022/05/22 08:14:15;;;;;;;0.10;0.10;;;16.90;99.90;;;;;;5057731;28;20052;-78
2022/05/22 08:16:44;;;;;;;0.00;0.00;;;16.90;99.90;;;;;;5074478;28;20488;-78
2022/05/22 08:19:10;;;;;;;0.00;0.00;;;16.90;99.90;;;;;;5074283;28;20515;-78
2022/05/22 08:21:37;;;;;;;0.28;0.10;;;16.90;99.90;;;;;;5057652;28;20059;-78
2022/05/22 08:24:03;;;;;;;0.73;0.40;;;17.00;99.90;;;;;;5074200;28;20396;-78
2022/05/22 08:26:29;;;;;;;0.00;0.00;;;17.10;99.90;;;;;;5057628;28;20135;-78
2022/05/22 08:28:55;;;;;;;0.00;0.00;;;17.20;99.90;;;;;;5074228;28;20567;-78
2022/05/22 08:31:22;;;;;;;0.00;0.00;;;17.30;99.90;;;;;;5057541;28;20051;-78
2022/05/22 08:33:48;;;;;;;0.00;0.00;;;17.40;99.90;;;;;;5057629;28;20092;-78
2022/05/22 08:36:14;;;;;;;0.00;0.00;;;17.20;99.90;;;;;;5057474;28;20461;-78
2022/05/22 08:38:40;;;;;;;0.00;0.00;;;17.00;99.90;;;;;;5074584;28;20396;-78
2022/05/22 08:41:21;;;;;;;0.00;0.00;;;16.70;99.90;;;;;;5057613;28;20044;-78
2022/05/22 08:44:10;;;;;;;0.00;0.00;;;16.80;99.90;;;;;;5057131;28;20054;-78
2022/05/22 08:46:58;;;;;;;0.03;0.00;;;17.00;99.90;;;;;;5074665;28;20036;-79
2022/05/22 08:49:41;;;;;;;0.00;0.00;;;17.20;99.90;;;;;;5074872;28;20492;-78
2022/05/22 08:52:29;;;;;;;0.00;0.00;;;17.40;99.90;;;;;;5056649;28;20092;-78
2022/05/22 08:55:10;;;;;;;0.00;0.00;;;17.60;99.90;;;;;;5056343;28;20131;-78
2022/05/22 09:00:40;;;;;;;0.00;0.00;;;18.00;99.90;;;;;;5073618;28;20103;-78
2022/05/22 09:03:20;;;;;;;0.00;0.00;;;18.10;99.90;;;;;;5073525;28;20048;-78
2022/05/22 09:05:50;;;;;;;0.13;0.10;;;18.20;99.90;;;;;;5074143;28;20460;-78
2022/05/22 09:08:24;;;;;;;0.10;0.10;;;18.50;99.90;;;;;;5074150;28;20358;-78
2022/05/22 09:11:10;;;;;;;0.30;0.30;;;18.60;99.90;;;;;;5073569;28;20049;-78
2022/05/22 09:13:44;;;;;;;2.42;0.47;;;18.70;99.90;;;;;;5073445;28;20048;-78
2022/05/22 09:16:30;;;;;;;0.10;0.10;;;18.80;99.90;;;;;;5073077;28;20139;-78
2022/05/22 09:19:10;;;;;;;0.00;0.00;;;18.80;99.90;;;;;;5073397;28;20094;-78
2022/05/22 09:21:55;;;;;;;0.00;0.00;;;18.90;99.90;;;;;;5056507;28;20056;-78
2022/05/22 09:24:39;;;;;;;0.00;0.00;;;19.20;99.90;;;;;;5073386;28;20048;-78
2022/05/22 09:27:29;;;;;;;0.00;0.00;;;19.30;99.90;;;;;;5073379;28;20549;-77
2022/05/22 09:30:18;;;;;;;0.00;0.00;;;19.30;98.50;;;;;;5072672;28;20048;-77
2022/05/22 09:33:10;;;;;;;0.10;0.10;;;19.20;99.60;;;;;;5073099;28;20052;-77
2022/05/22 09:36:02;;;;;;;0.00;0.00;;;19.00;99.80;;;;;;5035227;28;20130;-77
2022/05/22 09:38:49;;;;;;;0.00;0.00;;;18.80;98.80;;;;;;5035466;28;20664;-77
2022/05/22 09:41:43;;;;;;;0.00;0.00;;;18.80;99.90;;;;;;5035328;28;20564;-78
2022/05/22 09:44:29;;;;;;;0.00;0.00;;;19.00;99.00;;;;;;5035252;28;20040;-78
2022/05/22 09:47:12;;;;;;;0.00;0.00;;;19.10;98.40;;;;;;5035235;28;20053;-78
2022/05/22 09:50:05;;;;;;;0.65;0.30;;;19.20;97.60;;;;;;5035105;28;20103;-78
2022/05/22 09:52:46;;;;;;;0.10;0.10;;;19.40;98.40;;;;;;5034766;28;20161;-78
2022/05/22 09:55:58;;;;;;;0.38;0.10;;;19.70;98.60;;;;;;5034565;28;20049;-78
2022/05/22 09:58:27;;;;;;;0.00;0.00;;;19.80;96.10;;;;;;4976526;28;20547;-78
2022/05/22 10:01:04;;;;;;;0.00;0.00;;;19.90;95.50;;;;;;4976329;28;20050;-78
2022/05/22 10:04:09;;;;;;;0.00;0.00;;;20.30;97.60;;;;;;4976196;28;20062;-78
2022/05/22 10:07:05;;;;;;;0.65;0.32;;;20.60;95.30;;;;;;4975447;28;20148;-78
2022/05/22 10:09:55;;;;;;;0.00;0.00;;;20.70;96.20;;;;;;4992245;28;20054;-78
2022/05/22 10:12:33;;;;;;;0.00;0.00;;;20.90;93.80;;;;;;4988284;28;20061;-78
2022/05/22 10:15:14;;;;;;;0.00;0.00;;;21.10;93.50;;;;;;4999209;28;20061;-78
2022/05/22 10:18:16;;;;;;;6.50;0.52;;;21.10;91.60;;;;;;5015212;28;20126;-78
2022/05/22 10:20:55;;;;;;;5.97;0.68;;;21.00;93.90;;;;;;5015125;28;20064;-78
2022/05/22 10:23:53;;;;;;;0.00;0.00;;;20.90;96.10;;;;;;5012991;28;20111;-77
2022/05/22 10:26:40;;;;;;;0.00;0.00;;;20.70;95.90;;;;;;5015230;28;20440;-78
2022/05/22 10:29:17;;;;;;;0.00;0.00;;;20.50;93.30;;;;;;5040473;28;20078;-78
2022/05/22 10:31:49;;;;;;;0.00;0.00;;;20.30;94.40;;;;;;5055351;28;20047;-78
2022/05/22 10:34:33;;;;;;;0.00;0.00;;;20.10;93.80;;;;;;5056051;28;20109;-78
2022/05/22 10:37:16;;;;;;;0.83;0.50;;;20.10;94.30;;;;;;5072174;28;20381;-78
2022/05/22 10:39:41;;;;;;;0.45;0.45;;;20.00;93.10;;;;;;5038966;28;20287;-78
2022/05/22 10:45:13;;;;;;;0.00;0.00;;;19.90;94.20;;;;;;5072241;28;20083;-78
2022/05/22 10:47:38;;;;;;;0.00;0.00;;;19.80;93.60;;;;;;5072950;28;20430;-78
2022/05/22 10:50:18;;;;;;;0.00;0.00;;;19.70;92.10;;;;;;5054873;28;20118;-78
2022/05/22 10:52:44;;;;;;;0.30;0.30;;;19.50;92.80;;;;;;5071635;28;20391;-79
2022/05/22 10:55:28;;;;;;;0.10;0.10;;;19.40;94.70;;;;;;5071864;28;20053;-79
2022/05/22 10:58:00;;;;;;;0.00;0.00;;;19.20;95.80;;;;;;5055734;28;20056;-79
2022/05/22 11:00:26;;;;;;;0.00;0.00;;;19.10;94.60;;;;;;5072248;28;20437;-79
2022/05/22 11:02:52;;;;;;;0.00;0.00;;;18.90;95.10;;;;;;5072394;28;20044;-78
2022/05/22 11:05:27;;;;;;;0.00;0.00;;;18.90;98.90;;;;;;5072193;28;20431;-79
2022/05/22 11:07:56;;;;;;;0.00;0.00;;;18.90;95.30;;;;;;5072237;28;20048;-79
2022/05/22 11:10:35;;;;;;;0.00;0.00;;;18.90;95.50;;;;;;5055751;28;20045;-79
2022/05/22 11:13:11;;;;;;;0.10;0.10;;;18.80;95.60;;;;;;5072384;28;20128;-79
2022/05/22 11:15:40;;;;;;;1.55;0.70;;;18.80;94.90;;;;;;5072463;28;20043;-79
2022/05/22 11:18:07;;;;;;;0.00;0.00;;;19.00;94.40;;;;;;5074166;28;20048;-79
2022/05/22 11:20:34;;;;;;;0.00;0.00;;;19.50;96.40;;;;;;5075402;28;20045;-79
2022/05/22 11:23:08;;;;;;;0.00;0.00;;;20.10;96.80;;;;;;5075633;28;20048;-80
2022/05/22 11:25:55;;;;;;;0.00;0.00;;;20.60;96.00;;;;;;5075605;28;20506;-79
2022/05/22 11:28:49;;;;;;;0.00;0.00;;;21.00;96.00;;;;;;5075782;28;20135;-79
2022/05/22 11:31:27;;;;;;;0.00;0.00;;;21.40;92.20;;;;;;5075829;28;20393;-79
2022/05/22 11:34:17;;;;;;;0.00;0.00;;;21.60;88.10;;;;;;5075412;28;20052;-80
2022/05/22 11:37:14;;;;;;;0.10;0.10;;;21.90;85.10;;;;;;5075314;28;20044;-79
2022/05/22 11:40:11;;;;;;;0.00;0.00;;;22.10;88.10;;;;;;5058877;28;20135;-79
2022/05/22 11:42:38;;;;;;;0.00;0.00;;;22.30;80.30;;;;;;5075483;28;20042;-79
2022/05/22 11:45:22;;;;;;;0.00;0.00;;;22.40;76.50;;;;;;5075349;28;20048;-79
2022/05/22 11:48:13;;;;;;;0.00;0.00;;;22.60;79.60;;;;;;5074780;28;20049;-80
2022/05/22 11:51:10;;;;;;;0.00;0.00;;;22.80;74.10;;;;;;5075224;28;20082;-79
2022/05/22 11:53:54;;;;;;;0.00;0.00;;;23.00;76.80;;;;;;5057969;28;20048;-79
2022/05/22 11:56:36;;;;;;;0.00;0.00;;;23.20;77.90;;;;;;5058335;28;20045;-79
2022/05/22 11:59:39;;;;;;;0.00;0.00;;;23.30;76.80;;;;;;5075071;28;20124;-79
2022/05/22 12:02:14;;;;;;;0.00;0.00;;;22.90;70.70;;;;;;5074859;28;20052;-79
2022/05/22 12:05:11;;;;;;;1.00;0.22;;;22.60;71.90;;;;;;5058373;28;20067;-79
2022/05/22 12:07:42;;;;;;;0.20;0.10;;;22.10;70.50;;;;;;5058264;28;20050;-79
2022/05/22 12:10:29;;;;;;;0.00;0.00;;;21.70;71.40;;;;;;5074745;28;20053;-79
2022/05/22 12:13:06;;;;;;;0.00;0.00;;;21.40;74.80;;;;;;5074789;28;20373;-80
2022/05/22 12:15:37;;;;;;;0.00;0.00;;;21.20;76.00;;;;;;5074615;28;20491;-80
2022/05/22 12:18:21;;;;;;;0.00;0.00;;;21.00;77.70;;;;;;5074586;28;20040;-80
2022/05/22 12:21:00;;;;;;;0.00;0.00;;;20.90;80.90;;;;;;5074626;28;20045;-80
2022/05/22 12:23:31;;;;;;;0.00;0.00;;;20.70;83.80;;;;;;5075326;28;20109;-80
2022/05/22 12:26:04;;;;;;;0.00;0.00;;;20.60;79.60;;;;;;5074842;28;20055;-80
2022/05/22 12:28:45;;;;;;;0.08;0.00;;;20.40;83.60;;;;;;5057293;28;20496;-79
2022/05/22 12:31:43;;;;;;;0.00;0.00;;;20.30;81.30;;;;;;5057522;28;20052;-80
2022/05/22 12:34:14;;;;;;;0.00;0.00;;;20.20;83.80;;;;;;5074958;28;20067;-80
2022/05/22 12:36:44;;;;;;;0.00;0.00;;;20.10;82.70;;;;;;5074828;28;20448;-80
2022/05/22 12:39:12;;;;;;;0.00;0.00;;;20.10;86.30;;;;;;5058005;28;20060;-79
2022/05/22 12:41:49;;;;;;;0.00;0.00;;;20.00;89.20;;;;;;5074041;28;20048;-80
2022/05/22 12:44:15;;;;;;;0.00;0.00;;;19.90;87.00;;;;;;5057420;28;20156;-79
2022/05/22 12:46:41;;;;;;;0.00;0.00;;;19.80;92.50;;;;;;5057355;28;20135;-79
2022/05/22 12:49:19;;;;;;;0.00;0.00;;;19.90;89.60;;;;;;5074499;28;20048;-79
2022/05/22 12:51:57;;;;;;;0.00;0.00;;;19.90;86.10;;;;;;5073877;28;20112;-79
2022/05/22 12:54:25;;;;;;;0.00;0.00;;;20.00;84.80;;;;;;5073325;28;20134;-79
2022/05/22 12:56:51;;;;;;;0.00;0.00;;;20.00;81.80;;;;;;5073979;28;20056;-79
2022/05/22 12:59:27;;;;;;;0.00;0.00;;;20.00;88.10;;;;;;5073861;28;20484;-79
2022/05/22 13:01:56;;;;;;;0.08;0.08;;;20.10;85.80;;;;;;5074098;28;20071;-79
2022/05/22 13:04:56;;;;;;;0.00;0.00;;;20.10;84.80;;;;;;5074408;28;20052;-79
2022/05/22 13:07:40;;;;;;;0.00;0.00;;;20.20;87.90;;;;;;5057166;28;20050;-79
2022/05/22 13:10:33;;;;;;;0.55;0.20;;;20.10;89.90;;;;;;5073685;28;20044;-78
2022/05/22 13:13:06;;;;;;;0.00;0.00;;;20.20;87.60;;;;;;5056602;28;20044;-79
2022/05/22 13:15:33;;;;;;;0.00;0.00;;;20.30;84.70;;;;;;5056632;28;20048;-79
2022/05/22 13:18:13;;;;;;;0.00;0.00;;;20.60;89.10;;;;;;5073377;28;20385;-79
2022/05/22 13:20:39;;;;;;;0.00;0.00;;;20.90;87.60;;;;;;5073749;28;20048;-79
2022/05/22 13:23:28;;;;;;;0.20;0.20;;;21.30;83.80;;;;;;5056865;28;20114;-79
2022/05/22 13:26:03;;;;;;;0.00;0.00;;;21.50;77.90;;;;;;5073372;28;20373;-79
2022/05/22 13:28:48;;;;;;;0.10;0.10;;;21.60;78.90;;;;;;5056627;28;20048;-79